Time;durP1;ratioP1;P1;durP2;ratioP2;P2;SDS_P1;SDS_P2;PMS_P1;PMS_P2;Temp;Humidity;BMP_temperature;BMP_pressure;BME280_temperature;BME280_humidity;BME280_pressure;Samples;Min_cycle;Max_cycle;Signal;HPM_P1;HPM_P2
2021/09/16 00:00:52;;;;;;;;;;;14.60;99.90;;;;;;5075928;28;19917;-69
2021/09/16 00:03:19;;;;;;;;;;;14.70;99.90;;;;;;5074080;28;19917;-68
2021/09/16 00:05:48;;;;;;;;;;;14.70;99.90;;;;;;5074130;28;19913;-69
2021/09/16 00:08:15;;;;;;;;;;;14.70;99.90;;;;;;5074807;28;19909;-68
2021/09/16 00:10:42;;;;;;;;;;;14.70;99.90;;;;;;5075036;28;20349;-68
2021/09/16 00:13:08;;;;;;;;;;;14.80;99.90;;;;;;5075097;28;19909;-70
2021/09/16 00:15:35;;;;;;;;;;;14.70;99.90;;;;;;5074299;28;19909;-68
2021/09/16 00:18:02;;;;;;;;;;;14.70;99.90;;;;;;5073217;28;20024;-68
2021/09/16 00:20:29;;;;;;;;;;;14.60;99.90;;;;;;5074493;28;19969;-68
2021/09/16 00:22:56;;;;;;;;;;;14.50;99.90;;;;;;5074512;28;20294;-67
2021/09/16 00:25:22;;;;;;;;;;;14.40;99.90;;;;;;5074453;28;19916;-68
2021/09/16 00:27:49;;;;;;;;;;;14.50;99.90;;;;;;5074557;28;20359;-68
2021/09/16 00:30:16;;;;;;;;;;;14.50;99.90;;;;;;5074503;28;20344;-69
2021/09/16 00:32:43;;;;;;;;;;;14.50;99.90;;;;;;5074378;28;20008;-68
2021/09/16 00:35:09;;;;;;;;;;;14.40;99.90;;;;;;5074272;28;19913;-68
2021/09/16 00:37:36;;;;;;;;;;;14.40;99.90;;;;;;5073836;28;19915;-69
2021/09/16 00:40:04;;;;;;;;;;;14.50;99.90;;;;;;5074116;28;20011;-69
2021/09/16 00:42:31;;;;;;;;;;;14.70;99.90;;;;;;5074117;28;20363;-69
2021/09/16 00:44:57;;;;;;;;;;;14.90;99.90;;;;;;5074093;28;19915;-69
2021/09/16 00:47:24;;;;;;;;;;;15.00;99.90;;;;;;5073732;28;20359;-70
2021/09/16 00:49:51;;;;;;;;;;;15.20;99.90;;;;;;5073461;28;19966;-70
2021/09/16 00:52:18;;;;;;;;;;;15.30;99.90;;;;;;5073882;28;19908;-69
2021/09/16 00:54:45;;;;;;;;;;;15.50;99.90;;;;;;5072559;28;19909;-69
2021/09/16 00:57:13;;;;;;;;;;;15.60;99.90;;;;;;5073788;28;20378;-69
2021/09/16 00:59:40;;;;;;;;;;;15.70;99.90;;;;;;5073150;28;19962;-70
2021/09/16 01:02:08;;;;;;;;;;;15.80;99.90;;;;;;5073726;28;19912;-69
2021/09/16 01:04:35;;;;;;;;;;;15.70;99.90;;;;;;5072630;28;20347;-69
2021/09/16 01:07:02;;;;;;;;;;;15.70;99.90;;;;;;5073626;28;19939;-69
2021/09/16 01:09:31;;;;;;;;;;;15.90;99.90;;;;;;5073450;28;20027;-68
2021/09/16 01:11:57;;;;;;;;;;;15.80;99.90;;;;;;5073504;28;19962;-68
2021/09/16 01:14:25;;;;;;;;;;;16.10;99.90;;;;;;5072103;28;19961;-68
2021/09/16 01:16:52;;;;;;;;;;;16.40;99.90;;;;;;5072853;28;19955;-70
2021/09/16 01:19:19;;;;;;;;;;;16.30;99.90;;;;;;5073242;28;19916;-68
2021/09/16 01:21:46;;;;;;;;;;;16.20;99.90;;;;;;5073165;28;20050;-68
2021/09/16 01:24:13;;;;;;;;;;;15.70;99.90;;;;;;5073206;28;20355;-69
2021/09/16 01:26:41;;;;;;;;;;;15.60;99.90;;;;;;5073384;28;19915;-69
2021/09/16 01:29:07;;;;;;;;;;;15.50;99.90;;;;;;5073871;28;19915;-68
2021/09/16 01:31:35;;;;;;;;;;;15.40;99.90;;;;;;5076022;28;19909;-68
2021/09/16 01:34:06;;;;;;;;;;;15.40;99.90;;;;;;5076079;28;19916;-68
2021/09/16 01:36:33;;;;;;;;;;;15.30;99.90;;;;;;5074346;28;20347;-68
2021/09/16 01:38:59;;;;;;;;;;;15.10;99.90;;;;;;5073030;28;19913;-69
2021/09/16 01:41:26;;;;;;;;;;;15.10;99.90;;;;;;5072779;28;19917;-69
2021/09/16 01:43:53;;;;;;;;;;;15.10;99.90;;;;;;5072650;28;19909;-69
2021/09/16 01:46:19;;;;;;;;;;;15.10;99.90;;;;;;5072686;28;19912;-69
2021/09/16 01:48:46;;;;;;;;;;;15.00;99.90;;;;;;5072741;28;20322;-69
2021/09/16 01:51:13;;;;;;;;;;;15.10;99.90;;;;;;5072893;28;20524;-69
2021/09/16 01:53:39;;;;;;;;;;;15.20;99.90;;;;;;5072527;28;19913;-69
2021/09/16 01:56:06;;;;;;;;;;;15.20;99.90;;;;;;5072557;28;19913;-69
2021/09/16 01:58:33;;;;;;;;;;;15.10;99.90;;;;;;5072743;28;19987;-69
2021/09/16 02:01:00;;;;;;;;;;;15.00;99.90;;;;;;5072406;28;19924;-69
2021/09/16 02:03:26;;;;;;;;;;;15.00;99.90;;;;;;5072681;28;19908;-69
2021/09/16 02:06:03;;;;;;;;;;;15.00;99.90;;;;;;5072543;28;20324;-69
2021/09/16 02:08:30;;;;;;;;;;;15.00;99.90;;;;;;5072455;28;20366;-69
2021/09/16 02:10:56;;;;;;;;;;;14.90;99.90;;;;;;5072557;28;20363;-69
2021/09/16 02:13:23;;;;;;;;;;;14.90;99.90;;;;;;5072634;28;19908;-69
2021/09/16 02:15:50;;;;;;;;;;;14.90;99.90;;;;;;5072257;28;19912;-70
2021/09/16 02:18:16;;;;;;;;;;;14.90;99.90;;;;;;5072701;28;19916;-69
2021/09/16 02:20:43;;;;;;;;;;;15.10;99.90;;;;;;5072391;28;19916;-70
2021/09/16 02:23:10;;;;;;;;;;;15.10;99.90;;;;;;5072166;28;19909;-70
2021/09/16 02:25:36;;;;;;;;;;;15.00;99.90;;;;;;5072153;28;20359;-69
2021/09/16 02:28:03;;;;;;;;;;;15.10;99.90;;;;;;5071558;28;19909;-70
2021/09/16 02:30:30;;;;;;;;;;;15.10;99.90;;;;;;5072120;28;20240;-69
2021/09/16 02:32:57;;;;;;;;;;;15.20;99.90;;;;;;5072355;28;19908;-70
2021/09/16 02:35:23;;;;;;;;;;;15.30;99.90;;;;;;5072064;28;19916;-69
2021/09/16 02:37:50;;;;;;;;;;;15.50;99.90;;;;;;5072171;28;20046;-70
2021/09/16 02:40:16;;;;;;;;;;;15.80;99.90;;;;;;5072125;28;19916;-69
2021/09/16 02:42:43;;;;;;;;;;;16.10;99.90;;;;;;5072003;28;19908;-69
2021/09/16 02:45:10;;;;;;;;;;;16.20;99.90;;;;;;5071938;28;20013;-69
2021/09/16 02:47:37;;;;;;;;;;;16.00;99.90;;;;;;5072145;28;20355;-70
2021/09/16 02:50:04;;;;;;;;;;;15.90;99.90;;;;;;5071832;28;19927;-69
2021/09/16 02:52:31;;;;;;;;;;;15.90;99.90;;;;;;5070957;28;19962;-69
2021/09/16 02:54:58;;;;;;;;;;;15.80;99.90;;;;;;5072384;28;19948;-69
2021/09/16 02:57:24;;;;;;;;;;;15.60;99.90;;;;;;5072296;28;20411;-69
2021/09/16 02:59:51;;;;;;;;;;;15.60;99.90;;;;;;5071779;28;19912;-69
2021/09/16 03:02:18;;;;;;;;;;;15.50;99.90;;;;;;5072187;28;19912;-69
2021/09/16 03:04:44;;;;;;;;;;;15.50;99.90;;;;;;5074098;28;19919;-70
2021/09/16 03:07:11;;;;;;;;;;;15.60;99.90;;;;;;5074968;28;19954;-69
2021/09/16 03:09:37;;;;;;;;;;;15.70;99.90;;;;;;5075093;28;19908;-68
2021/09/16 03:12:04;;;;;;;;;;;15.70;99.90;;;;;;5072250;28;20348;-69
2021/09/16 03:14:31;;;;;;;;;;;15.60;99.90;;;;;;5072014;28;19908;-69
2021/09/16 03:16:58;;;;;;;;;;;15.50;99.90;;;;;;5071975;28;19908;-69
2021/09/16 03:19:24;;;;;;;;;;;15.50;99.90;;;;;;5071755;28;19913;-69
2021/09/16 03:21:51;;;;;;;;;;;15.60;99.90;;;;;;5071752;28;20003;-69
2021/09/16 03:24:18;;;;;;;;;;;15.60;99.90;;;;;;5071933;28;19935;-70
2021/09/16 03:26:44;;;;;;;;;;;15.50;99.90;;;;;;5071947;28;19961;-69
2021/09/16 03:29:11;;;;;;;;;;;15.60;99.90;;;;;;5072102;28;19944;-69
2021/09/16 03:31:38;;;;;;;;;;;15.40;99.90;;;;;;5071454;28;19909;-69
2021/09/16 03:34:04;;;;;;;;;;;15.30;99.90;;;;;;5071869;28;19999;-69
2021/09/16 03:36:31;;;;;;;;;;;15.20;99.90;;;;;;5071773;28;19934;-69
2021/09/16 03:38:59;;;;;;;;;;;15.10;99.90;;;;;;5073393;28;19909;-69
2021/09/16 03:41:26;;;;;;;;;;;15.20;99.90;;;;;;5075050;28;19916;-69
2021/09/16 03:43:53;;;;;;;;;;;15.30;99.90;;;;;;5074786;28;19947;-69
2021/09/16 03:46:20;;;;;;;;;;;15.20;99.90;;;;;;5074896;28;20355;-68
2021/09/16 03:48:46;;;;;;;;;;;15.10;99.90;;;;;;5074766;28;19940;-69
2021/09/16 03:51:13;;;;;;;;;;;15.00;99.90;;;;;;5075018;28;19981;-68
2021/09/16 03:53:39;;;;;;;;;;;14.90;99.90;;;;;;5074855;28;19913;-69
2021/09/16 03:56:06;;;;;;;;;;;14.80;99.90;;;;;;5075004;28;19962;-69
2021/09/16 03:58:33;;;;;;;;;;;14.80;99.90;;;;;;5075038;28;19915;-69
2021/09/16 04:00:59;;;;;;;;;;;15.00;99.90;;;;;;5074464;28;19921;-69
2021/09/16 04:03:26;;;;;;;;;;;14.90;99.90;;;;;;5074678;28;19908;-69
2021/09/16 04:05:53;;;;;;;;;;;15.00;99.90;;;;;;5074742;28;20007;-69
2021/09/16 04:08:19;;;;;;;;;;;15.00;99.90;;;;;;5074686;28;20311;-69
2021/09/16 04:10:46;;;;;;;;;;;15.00;99.90;;;;;;5074617;28;19916;-69
2021/09/16 04:13:12;;;;;;;;;;;15.00;99.90;;;;;;5074511;28;19954;-69
2021/09/16 04:15:40;;;;;;;;;;;15.10;99.90;;;;;;5074387;28;20425;-68
2021/09/16 04:18:06;;;;;;;;;;;15.10;99.90;;;;;;5074659;28;19915;-69
2021/09/16 04:20:33;;;;;;;;;;;15.10;99.90;;;;;;5074360;28;19973;-68
2021/09/16 04:22:59;;;;;;;;;;;15.10;99.90;;;;;;5074587;28;19940;-68
2021/09/16 04:25:26;;;;;;;;;;;15.00;99.90;;;;;;5074349;28;19908;-69
2021/09/16 04:27:53;;;;;;;;;;;15.10;99.90;;;;;;5072945;28;19909;-70
2021/09/16 04:30:19;;;;;;;;;;;15.10;99.90;;;;;;5074163;28;19912;-69
2021/09/16 04:32:46;;;;;;;;;;;15.10;99.90;;;;;;5074173;28;19943;-68
2021/09/16 04:35:13;;;;;;;;;;;15.00;99.90;;;;;;5074571;28;19912;-69
2021/09/16 04:37:39;;;;;;;;;;;15.10;99.90;;;;;;5075002;28;19940;-67
2021/09/16 04:40:07;;;;;;;;;;;15.00;99.90;;;;;;5077472;28;19912;-69
2021/09/16 04:42:33;;;;;;;;;;;15.00;99.90;;;;;;5075394;28;20365;-69
2021/09/16 04:45:00;;;;;;;;;;;15.10;99.90;;;;;;5074424;28;20271;-69
2021/09/16 04:47:27;;;;;;;;;;;15.00;99.90;;;;;;5074088;28;20344;-69
2021/09/16 04:49:53;;;;;;;;;;;15.00;99.90;;;;;;5073427;28;19921;-69
2021/09/16 04:52:20;;;;;;;;;;;15.10;99.90;;;;;;5074528;28;19951;-69
2021/09/16 04:54:48;;;;;;;;;;;15.10;99.90;;;;;;5074319;28;19916;-70
2021/09/16 04:57:14;;;;;;;;;;;15.30;99.90;;;;;;5074323;28;19932;-70
2021/09/16 04:59:41;;;;;;;;;;;15.30;99.90;;;;;;5073675;28;20430;-70
2021/09/16 05:02:08;;;;;;;;;;;15.20;99.90;;;;;;5073902;28;19916;-69
2021/09/16 05:04:34;;;;;;;;;;;15.20;99.90;;;;;;5073924;28;19961;-70
2021/09/16 05:07:01;;;;;;;;;;;15.20;99.90;;;;;;5073623;28;19915;-69
2021/09/16 05:09:28;;;;;;;;;;;15.20;99.90;;;;;;5073636;28;19909;-68
2021/09/16 05:11:54;;;;;;;;;;;15.30;99.90;;;;;;5073227;28;19913;-69
2021/09/16 05:14:21;;;;;;;;;;;15.20;99.90;;;;;;5073412;28;19909;-69
2021/09/16 05:16:48;;;;;;;;;;;15.10;99.90;;;;;;5073679;28;19991;-69
2021/09/16 05:19:14;;;;;;;;;;;15.10;99.90;;;;;;5073482;28;20015;-68
2021/09/16 05:21:41;;;;;;;;;;;15.10;99.90;;;;;;5073159;28;20386;-68
2021/09/16 05:24:08;;;;;;;;;;;15.10;99.90;;;;;;5073313;28;20378;-69
2021/09/16 05:26:34;;;;;;;;;;;15.10;99.90;;;;;;5073096;28;19991;-68
2021/09/16 05:29:01;;;;;;;;;;;15.20;99.90;;;;;;5073084;28;20003;-68
2021/09/16 05:31:28;;;;;;;;;;;15.10;99.90;;;;;;5073075;28;19908;-68
2021/09/16 05:33:54;;;;;;;;;;;15.00;99.90;;;;;;5073095;28;19944;-68
2021/09/16 05:36:21;;;;;;;;;;;15.00;99.90;;;;;;5072959;28;19915;-68
2021/09/16 05:38:48;;;;;;;;;;;15.10;99.90;;;;;;5072895;28;19963;-68
2021/09/16 05:41:14;;;;;;;;;;;14.90;99.90;;;;;;5072952;28;19986;-68
2021/09/16 05:43:41;;;;;;;;;;;14.90;99.90;;;;;;5072734;28;20284;-68
2021/09/16 05:46:08;;;;;;;;;;;15.00;99.90;;;;;;5072702;28;19954;-68
2021/09/16 05:48:34;;;;;;;;;;;15.00;99.90;;;;;;5071559;28;19966;-68
2021/09/16 05:51:01;;;;;;;;;;;14.90;99.90;;;;;;5071621;28;19908;-68
2021/09/16 05:53:28;;;;;;;;;;;14.90;99.90;;;;;;5073073;28;20424;-68
2021/09/16 05:55:54;;;;;;;;;;;15.00;99.90;;;;;;5072670;28;19912;-69
2021/09/16 05:58:21;;;;;;;;;;;15.00;99.90;;;;;;5072919;28;19909;-69
2021/09/16 06:00:51;;;;;;;;;;;15.10;99.90;;;;;;5072444;28;20313;-69
2021/09/16 06:03:17;;;;;;;;;;;15.10;99.90;;;;;;5072536;28;19909;-69
2021/09/16 06:05:44;;;;;;;;;;;15.00;99.90;;;;;;5072501;28;19909;-68
2021/09/16 06:08:10;;;;;;;;;;;15.00;99.90;;;;;;5072584;28;19909;-69
2021/09/16 06:10:37;;;;;;;;;;;14.90;99.90;;;;;;5072716;28;20342;-68
2021/09/16 06:16:10;;;;;;;;;;;14.80;99.90;;;;;;5073927;28;20375;-68
2021/09/16 06:18:36;;;;;;;;;;;14.90;99.90;;;;;;5073334;28;19909;-68
2021/09/16 06:21:03;;;;;;;;;;;14.80;99.90;;;;;;5072536;28;19939;-68
2021/09/16 06:23:30;;;;;;;;;;;14.80;99.90;;;;;;5072424;28;19919;-68
2021/09/16 06:25:56;;;;;;;;;;;14.80;99.90;;;;;;5072317;28;20325;-68
2021/09/16 06:28:23;;;;;;;;;;;14.80;99.90;;;;;;5072297;28;20287;-68
2021/09/16 06:31:02;;;;;;;;;;;14.80;99.90;;;;;;5072320;28;19927;-72
2021/09/16 06:33:29;;;;;;;;;;;14.70;99.90;;;;;;5071491;28;20271;-68
2021/09/16 06:35:56;;;;;;;;;;;14.70;99.90;;;;;;5072470;28;19909;-68
2021/09/16 06:38:23;;;;;;;;;;;14.60;99.90;;;;;;5072488;28;20279;-67
2021/09/16 06:40:49;;;;;;;;;;;14.60;99.90;;;;;;5072446;28;19974;-69
2021/09/16 06:43:16;;;;;;;;;;;14.60;99.90;;;;;;5072469;28;19908;-70
2021/09/16 06:45:43;;;;;;;;;;;14.60;99.90;;;;;;5071653;28;19917;-68
2021/09/16 06:48:09;;;;;;;;;;;14.50;99.90;;;;;;5072109;28;19999;-69
2021/09/16 06:50:36;;;;;;;;;;;14.50;99.90;;;;;;5070743;28;19924;-69
2021/09/16 06:53:03;;;;;;;;;;;14.50;99.90;;;;;;5069722;28;19917;-69
2021/09/16 06:55:29;;;;;;;;;;;14.50;99.90;;;;;;5069783;28;19974;-69
2021/09/16 06:57:56;;;;;;;;;;;14.50;99.90;;;;;;5068612;28;19908;-69
2021/09/16 07:00:23;;;;;;;;;;;14.50;99.90;;;;;;5069754;28;20015;-69
2021/09/16 07:02:50;;;;;;;;;;;14.40;99.90;;;;;;5069853;28;20278;-69
2021/09/16 07:05:17;;;;;;;;;;;14.30;99.90;;;;;;5068404;28;19912;-68
2021/09/16 07:07:44;;;;;;;;;;;14.30;99.90;;;;;;5068295;28;19916;-69
2021/09/16 07:10:12;;;;;;;;;;;14.30;99.90;;;;;;5069966;28;19908;-69
2021/09/16 07:12:38;;;;;;;;;;;14.30;99.90;;;;;;5069843;28;19916;-69
2021/09/16 07:15:07;;;;;;;;;;;14.30;99.90;;;;;;5073329;28;19909;-70
2021/09/16 07:17:33;;;;;;;;;;;14.20;99.90;;;;;;5072893;28;19912;-69
2021/09/16 07:20:00;;;;;;;;;;;14.20;99.90;;;;;;5073482;28;19916;-69
2021/09/16 07:22:27;;;;;;;;;;;14.20;99.90;;;;;;5073580;28;19927;-69
2021/09/16 07:24:53;;;;;;;;;;;14.20;99.90;;;;;;5073490;28;19962;-70
2021/09/16 07:27:20;;;;;;;;;;;14.10;99.90;;;;;;5073492;28;19912;-70
2021/09/16 07:29:47;;;;;;;;;;;14.10;99.90;;;;;;5073297;28;20292;-69
2021/09/16 07:32:14;;;;;;;;;;;14.10;99.90;;;;;;5073275;28;19963;-69
2021/09/16 07:34:40;;;;;;;;;;;14.00;99.90;;;;;;5073172;28;20351;-69
2021/09/16 07:37:08;;;;;;;;;;;14.00;99.90;;;;;;5073168;28;20310;-69
2021/09/16 07:39:34;;;;;;;;;;;14.00;99.90;;;;;;5072973;28;19912;-69
2021/09/16 07:42:01;;;;;;;;;;;13.90;99.90;;;;;;5073163;28;19923;-69
2021/09/16 07:44:28;;;;;;;;;;;13.90;99.90;;;;;;5072999;28;19917;-69
2021/09/16 07:46:55;;;;;;;;;;;13.90;99.90;;;;;;5074189;28;20024;-69
2021/09/16 07:49:22;;;;;;;;;;;13.80;99.90;;;;;;5074540;28;19938;-69
2021/09/16 07:51:49;;;;;;;;;;;13.80;99.90;;;;;;5075450;28;19913;-69
2021/09/16 07:54:15;;;;;;;;;;;13.80;99.90;;;;;;5075907;28;19946;-69
2021/09/16 07:56:42;;;;;;;;;;;13.80;99.90;;;;;;5072886;28;19927;-69
2021/09/16 07:59:09;;;;;;;;;;;13.80;99.90;;;;;;5072406;28;19966;-68
2021/09/16 08:01:36;;;;;;;;;;;13.70;99.90;;;;;;5072200;28;20007;-69
2021/09/16 08:04:03;;;;;;;;;;;13.70;99.90;;;;;;5072529;28;20367;-68
2021/09/16 08:06:30;;;;;;;;;;;13.70;99.90;;;;;;5072599;28;19908;-69
2021/09/16 08:08:57;;;;;;;;;;;13.70;99.90;;;;;;5072422;28;19916;-69
2021/09/16 08:11:24;;;;;;;;;;;13.60;99.90;;;;;;5072204;28;19944;-69
2021/09/16 08:13:53;;;;;;;;;;;13.60;99.90;;;;;;5072417;28;19909;-69
2021/09/16 08:16:21;;;;;;;;;;;13.60;99.90;;;;;;5072380;28;19916;-69
2021/09/16 08:18:48;;;;;;;;;;;13.50;99.90;;;;;;5072556;28;19948;-69
2021/09/16 08:21:15;;;;;;;;;;;13.50;99.90;;;;;;5072561;28;19923;-69
2021/09/16 08:23:43;;;;;;;;;;;13.60;99.90;;;;;;5071932;28;19908;-69
2021/09/16 08:26:10;;;;;;;;;;;13.60;99.90;;;;;;5071511;28;19912;-69
2021/09/16 08:28:36;;;;;;;;;;;13.60;99.90;;;;;;5072963;28;19908;-69
2021/09/16 08:31:03;;;;;;;;;;;13.60;99.90;;;;;;5072890;28;19909;-69
2021/09/16 08:33:30;;;;;;;;;;;13.60;99.90;;;;;;5072372;28;19959;-69
2021/09/16 08:35:57;;;;;;;;;;;13.60;99.90;;;;;;5072941;28;19912;-69
2021/09/16 08:38:24;;;;;;;;;;;13.50;99.90;;;;;;5074301;28;19941;-68
2021/09/16 08:40:51;;;;;;;;;;;13.60;99.90;;;;;;5072670;28;20275;-69
2021/09/16 08:43:20;;;;;;;;;;;13.50;99.90;;;;;;5072128;28;19912;-69
2021/09/16 08:45:48;;;;;;;;;;;13.50;99.90;;;;;;5071834;28;19959;-69
2021/09/16 08:48:15;;;;;;;;;;;13.40;99.90;;;;;;5071850;28;19920;-69
2021/09/16 08:50:43;;;;;;;;;;;13.40;99.90;;;;;;5071757;28;19919;-69
2021/09/16 08:53:12;;;;;;;;;;;13.30;99.90;;;;;;5072014;28;20395;-70
2021/09/16 08:55:39;;;;;;;;;;;13.30;99.90;;;;;;5071404;28;20325;-71
2021/09/16 08:58:09;;;;;;;;;;;13.30;99.90;;;;;;5071106;28;19908;-70
2021/09/16 09:00:36;;;;;;;;;;;13.20;99.90;;;;;;5071800;28;20007;-68
2021/09/16 09:03:04;;;;;;;;;;;13.20;99.90;;;;;;5071824;28;20322;-68
2021/09/16 09:05:31;;;;;;;;;;;13.20;99.90;;;;;;5072487;28;19953;-68
2021/09/16 09:07:59;;;;;;;;;;;13.20;99.90;;;;;;5073843;28;19916;-68
2021/09/16 09:10:39;;;;;;;;;;;13.20;99.90;;;;;;5073609;28;19954;-68
2021/09/16 09:13:08;;;;;;;;;;;13.20;99.90;;;;;;5073569;28;20302;-68
2021/09/16 09:15:38;;;;;;;;;;;13.10;99.90;;;;;;5073633;28;19908;-69
2021/09/16 09:18:04;;;;;;;;;;;13.00;99.90;;;;;;5073637;28;19908;-69
2021/09/16 09:20:32;;;;;;;;;;;13.00;99.90;;;;;;5073493;28;19916;-69
2021/09/16 09:22:58;;;;;;;;;;;13.10;99.90;;;;;;5075204;28;19908;-69
2021/09/16 09:25:28;;;;;;;;;;;13.10;99.90;;;;;;5076192;28;19908;-68
2021/09/16 09:27:55;;;;;;;;;;;13.00;99.90;;;;;;5075625;28;20374;-69
2021/09/16 09:30:23;;;;;;;;;;;13.00;99.90;;;;;;5074409;28;19912;-69
2021/09/16 09:32:53;;;;;;;;;;;13.00;99.90;;;;;;5073375;28;19913;-69
2021/09/16 09:35:27;;;;;;;;;;;13.00;99.90;;;;;;5074143;28;19912;-69
2021/09/16 09:37:54;;;;;;;;;;;13.00;99.90;;;;;;5072719;28;19931;-69
2021/09/16 09:40:35;;;;;;;;;;;13.00;99.90;;;;;;5072891;28;19970;-69
2021/09/16 09:43:37;;;;;;;;;;;12.90;99.90;;;;;;5072986;28;19908;-70
2021/09/16 09:46:10;;;;;;;;;;;12.90;99.90;;;;;;5050717;28;20004;-69
2021/09/16 09:48:41;;;;;;;;;;;12.90;99.90;;;;;;5065354;28;20330;-69
2021/09/16 09:51:09;;;;;;;;;;;12.90;99.90;;;;;;5072960;28;19919;-70
2021/09/16 09:53:37;;;;;;;;;;;12.90;99.90;;;;;;5072637;28;19999;-70
2021/09/16 09:56:15;;;;;;;;;;;12.80;99.90;;;;;;5072762;28;19908;-70
2021/09/16 09:58:42;;;;;;;;;;;12.80;99.90;;;;;;5072737;28;20283;-68
2021/09/16 10:01:24;;;;;;;;;;;12.80;99.90;;;;;;5072687;28;19925;-69
2021/09/16 10:03:51;;;;;;;;;;;12.80;99.90;;;;;;5072353;28;19992;-69
2021/09/16 10:06:18;;;;;;;;;;;12.80;99.90;;;;;;5072748;28;19915;-69
2021/09/16 10:09:04;;;;;;;;;;;12.80;99.90;;;;;;5072711;28;19973;-68
2021/09/16 10:11:41;;;;;;;;;;;12.90;99.90;;;;;;5072289;28;20424;-68
2021/09/16 10:14:07;;;;;;;;;;;12.90;99.90;;;;;;5105032;28;20348;-69
2021/09/16 10:16:34;;;;;;;;;;;12.90;99.90;;;;;;5072504;28;19916;-69
2021/09/16 10:19:01;;;;;;;;;;;13.00;99.90;;;;;;5072415;28;20274;-69
2021/09/16 10:21:28;;;;;;;;;;;13.00;99.90;;;;;;5072638;28;19916;-69
2021/09/16 10:23:55;;;;;;;;;;;13.00;99.90;;;;;;5075184;28;19931;-69
2021/09/16 10:26:42;;;;;;;;;;;13.10;99.90;;;;;;5092434;28;20005;-68
2021/09/16 10:29:30;;;;;;;;;;;13.10;99.90;;;;;;5092045;28;19919;-69
2021/09/16 10:32:05;;;;;;;;;;;13.20;99.90;;;;;;5091573;28;19908;-68
2021/09/16 10:34:41;;;;;;;;;;;13.20;99.90;;;;;;5089432;28;19970;-68
2021/09/16 10:37:11;;;;;;;;;;;13.30;99.90;;;;;;5089837;28;20389;-68
2021/09/16 10:39:39;;;;;;;;;;;13.20;99.90;;;;;;5090258;28;19966;-68
2021/09/16 10:42:06;;;;;;;;;;;13.30;99.90;;;;;;5090183;28;19912;-67
2021/09/16 10:44:33;;;;;;;;;;;13.40;99.90;;;;;;5090192;28;19946;-68
2021/09/16 10:47:15;;;;;;;;;;;13.40;99.90;;;;;;5089830;28;19908;-68
2021/09/16 10:49:41;;;;;;;;;;;13.40;99.90;;;;;;5092990;28;20134;-68
2021/09/16 10:52:14;;;;;;;;;;;13.50;99.90;;;;;;5093912;28;20366;-69
2021/09/16 10:54:46;;;;;;;;;;;13.60;99.90;;;;;;5094793;28;19912;-68
2021/09/16 10:57:19;;;;;;;;;;;13.60;99.90;;;;;;5095122;28;19912;-69
2021/09/16 10:59:49;;;;;;;;;;;13.60;99.90;;;;;;5095279;28;19916;-68
2021/09/16 11:02:16;;;;;;;;;;;13.60;99.90;;;;;;5094675;28;19912;-69
2021/09/16 11:04:57;;;;;;;;;;;13.60;99.90;;;;;;5094278;28;19912;-68
2021/09/16 11:07:34;;;;;;;;;;;13.60;99.90;;;;;;5093632;28;20305;-69
2021/09/16 11:10:15;;;;;;;;;;;13.60;99.90;;;;;;5093973;28;19908;-68
2021/09/16 11:12:46;;;;;;;;;;;13.70;99.90;;;;;;5093470;28;19938;-68
2021/09/16 11:15:14;;;;;;;;;;;13.80;99.90;;;;;;5093970;28;19909;-68
2021/09/16 11:17:41;;;;;;;;;;;13.90;99.90;;;;;;5093601;28;20327;-69
2021/09/16 11:20:10;;;;;;;;;;;13.80;99.90;;;;;;5092419;28;20321;-69
2021/09/16 11:22:36;;;;;;;;;;;13.80;99.90;;;;;;5093262;28;20312;-68
2021/09/16 11:25:03;;;;;;;;;;;13.90;99.90;;;;;;5093663;28;19954;-69
2021/09/16 11:27:32;;;;;;;;;;;13.80;99.90;;;;;;5092958;28;19959;-69
2021/09/16 11:30:00;;;;;;;;;;;13.70;99.90;;;;;;5093743;28;20163;-69
2021/09/16 11:32:33;;;;;;;;;;;13.70;99.90;;;;;;5093883;28;20259;-68
2021/09/16 11:35:02;;;;;;;;;;;13.60;99.90;;;;;;5093536;28;20359;-69
2021/09/16 11:37:32;;;;;;;;;;;13.70;99.90;;;;;;5093329;28;20345;-69
2021/09/16 11:40:04;;;;;;;;;;;13.70;99.90;;;;;;5093178;28;19971;-69
2021/09/16 11:42:32;;;;;;;;;;;13.60;99.90;;;;;;5093251;28;19914;-70
2021/09/16 11:45:04;;;;;;;;;;;13.50;99.90;;;;;;5093529;28;19912;-69
2021/09/16 11:47:36;;;;;;;;;;;13.40;99.90;;;;;;5093121;28;19912;-69
2021/09/16 11:50:03;;;;;;;;;;;13.40;99.90;;;;;;5093149;28;19985;-69
2021/09/16 11:52:29;;;;;;;;;;;13.40;99.90;;;;;;5092317;28;19939;-68
2021/09/16 11:55:22;;;;;;;;;;;13.40;99.90;;;;;;5084220;28;19957;-69
2021/09/16 11:57:55;;;;;;;;;;;13.30;99.90;;;;;;5070428;28;19909;-69
2021/09/16 12:00:27;;;;;;;;;;;13.30;99.90;;;;;;5092809;28;20384;-69
2021/09/16 12:02:54;;;;;;;;;;;13.30;99.90;;;;;;5093072;28;20008;-68
2021/09/16 12:05:40;;;;;;;;;;;13.30;99.90;;;;;;5092785;28;19912;-69
2021/09/16 12:08:11;;;;;;;;;;;13.40;99.90;;;;;;5092879;28;19914;-68
2021/09/16 12:10:42;;;;;;;;;;;13.30;99.90;;;;;;5092922;28;19915;-68
2021/09/16 12:13:11;;;;;;;;;;;13.40;99.90;;;;;;5092622;28;19941;-68
2021/09/16 12:15:38;;;;;;;;;;;13.30;99.90;;;;;;5092715;28;19908;-68
2021/09/16 12:18:06;;;;;;;;;;;13.30;99.90;;;;;;5092586;28;19929;-68
2021/09/16 12:20:33;;;;;;;;;;;13.30;99.90;;;;;;5091503;28;19924;-68
2021/09/16 12:23:00;;;;;;;;;;;13.30;99.90;;;;;;5092695;28;20577;-68
2021/09/16 12:25:29;;;;;;;;;;;13.20;99.90;;;;;;5092590;28;20010;-68
2021/09/16 12:28:05;;;;;;;;;;;13.20;99.90;;;;;;5092536;28;19931;-68
2021/09/16 12:30:36;;;;;;;;;;;13.20;99.90;;;;;;5092653;28;19908;-68
2021/09/16 12:33:24;;;;;;;;;;;13.20;99.90;;;;;;5092464;28;19931;-68
2021/09/16 12:36:11;;;;;;;;;;;13.10;99.90;;;;;;5093014;28;20293;-68
2021/09/16 12:38:38;;;;;;;;;;;13.10;99.90;;;;;;5089424;28;19908;-68
2021/09/16 12:41:26;;;;;;;;;;;13.10;99.90;;;;;;5094336;28;20287;-68
2021/09/16 12:43:57;;;;;;;;;;;13.10;99.90;;;;;;5079120;28;19908;-68
2021/09/16 12:46:24;;;;;;;;;;;13.10;99.90;;;;;;5071840;28;19908;-68
2021/09/16 12:48:51;;;;;;;;;;;13.00;99.90;;;;;;5071742;28;20022;-69
2021/09/16 12:51:21;;;;;;;;;;;13.00;99.90;;;;;;5071649;28;19913;-68
2021/09/16 12:53:50;;;;;;;;;;;13.00;99.90;;;;;;5070452;28;20382;-67
2021/09/16 12:56:18;;;;;;;;;;;13.00;99.90;;;;;;5071859;28;19953;-67
2021/09/16 12:58:45;;;;;;;;;;;13.00;99.90;;;;;;5103837;28;19908;-68
2021/09/16 13:01:11;;;;;;;;;;;12.90;99.90;;;;;;5071900;28;19967;-68
2021/09/16 13:03:38;;;;;;;;;;;12.90;99.90;;;;;;5071586;28;19909;-68
2021/09/16 13:06:12;;;;;;;;;;;12.90;99.90;;;;;;5071524;28;20245;-68
2021/09/16 13:08:40;;;;;;;;;;;12.90;99.90;;;;;;5071066;28;19912;-68
2021/09/16 13:11:19;;;;;;;;;;;12.90;99.90;;;;;;5070584;28;19978;-68
2021/09/16 13:13:46;;;;;;;;;;;12.90;99.90;;;;;;5071316;28;19953;-69
2021/09/16 13:16:13;;;;;;;;;;;12.80;99.90;;;;;;5071628;28;19912;-69
2021/09/16 13:18:39;;;;;;;;;;;12.80;99.90;;;;;;5071357;28;19924;-68
2021/09/16 13:21:06;;;;;;;;;;;12.80;99.90;;;;;;5070873;28;20038;-69
2021/09/16 13:23:33;;;;;;;;;;;12.80;99.90;;;;;;5070814;28;20476;-69
2021/09/16 13:26:01;;;;;;;;;;;12.80;99.90;;;;;;5071254;28;19912;-68
2021/09/16 13:28:27;;;;;;;;;;;12.80;99.90;;;;;;5071220;28;19913;-69
2021/09/16 13:30:54;;;;;;;;;;;12.70;99.90;;;;;;5071242;28;19983;-70
2021/09/16 13:33:21;;;;;;;;;;;12.70;99.90;;;;;;5071306;28;19908;-69
2021/09/16 13:35:47;;;;;;;;;;;12.70;99.90;;;;;;5070989;28;20010;-68
2021/09/16 13:38:14;;;;;;;;;;;12.70;99.90;;;;;;5103201;28;19913;-69
2021/09/16 13:40:42;;;;;;;;;;;12.60;99.90;;;;;;5070934;28;19921;-68
2021/09/16 13:43:08;;;;;;;;;;;12.60;99.90;;;;;;5070937;28;19997;-69
2021/09/16 13:45:35;;;;;;;;;;;12.60;99.90;;;;;;5070715;28;19908;-68
2021/09/16 13:48:02;;;;;;;;;;;12.50;99.90;;;;;;5070756;28;19953;-69
2021/09/16 13:50:29;;;;;;;;;;;12.50;99.90;;;;;;5070665;28;19920;-69
2021/09/16 13:52:56;;;;;;;;;;;12.60;99.90;;;;;;5070739;28;19908;-69
2021/09/16 13:55:22;;;;;;;;;;;12.50;99.90;;;;;;5071061;28;19995;-68
2021/09/16 13:57:49;;;;;;;;;;;12.40;99.90;;;;;;5070532;28;19913;-69
2021/09/16 14:00:16;;;;;;;;;;;12.40;99.90;;;;;;5070695;28;20362;-69
2021/09/16 14:02:43;;;;;;;;;;;12.40;99.90;;;;;;5070300;28;19923;-69
2021/09/16 14:05:09;;;;;;;;;;;12.40;99.90;;;;;;5070583;28;19962;-68
2021/09/16 14:07:36;;;;;;;;;;;12.40;99.90;;;;;;5070397;28;19909;-68
2021/09/16 14:10:04;;;;;;;;;;;12.40;99.90;;;;;;5070536;28;20313;-69
2021/09/16 14:12:30;;;;;;;;;;;12.40;99.90;;;;;;5070293;28;19996;-68
2021/09/16 14:14:57;;;;;;;;;;;12.40;99.90;;;;;;5073926;28;19909;-69
2021/09/16 14:17:24;;;;;;;;;;;12.40;99.90;;;;;;5074116;28;19909;-69
2021/09/16 14:19:50;;;;;;;;;;;12.30;99.90;;;;;;5073884;28;19918;-69
2021/09/16 14:22:17;;;;;;;;;;;12.30;99.90;;;;;;5070485;28;19942;-69
2021/09/16 14:24:44;;;;;;;;;;;12.40;99.90;;;;;;5070361;28;19957;-69